createdAt,value
2019-05-05T00:00:14.428Z,80.18
2019-05-05T00:01:14.759Z,79.90
2019-05-05T00:02:14.458Z,79.88
2019-05-05T00:03:14.726Z,79.94
2019-05-05T00:04:14.921Z,80.13
2019-05-05T00:05:15.478Z,80.09
2019-05-05T00:06:14.750Z,80.33
2019-05-05T00:07:14.879Z,80.29
2019-05-05T00:08:15.296Z,80.15
2019-05-05T00:09:14.684Z,80.50
2019-05-05T00:10:15.116Z,80.27
2019-05-05T00:11:15.416Z,79.64
2019-05-05T00:12:14.749Z,79.70
2019-05-05T00:13:14.909Z,79.41
2019-05-05T00:14:15.230Z,79.17
2019-05-05T00:15:14.635Z,79.08
2019-05-05T00:16:15.152Z,79.29
2019-05-05T00:17:14.524Z,79.19
2019-05-05T00:18:14.844Z,79.06
2019-05-05T00:19:19.118Z,78.97
2019-05-05T00:20:14.564Z,78.57
2019-05-05T00:21:15.132Z,78.61
2019-05-05T00:22:15.138Z,78.52
2019-05-05T00:23:14.652Z,78.20
2019-05-05T00:24:15.173Z,77.89
2019-05-05T00:25:14.415Z,78.28
2019-05-05T00:26:14.922Z,78.72
2019-05-05T00:27:14.992Z,78.37
2019-05-05T00:28:14.373Z,78.02
2019-05-05T00:29:14.858Z,78.17
2019-05-05T00:30:14.420Z,78.49
2019-05-05T00:31:15.019Z,78.10
2019-05-05T00:32:15.275Z,78.35
2019-05-05T00:33:14.596Z,78.68
2019-05-05T00:34:15.419Z,78.84
2019-05-05T00:35:14.831Z,79.21
2019-05-05T00:36:14.650Z,79.34
2019-05-05T00:37:15.177Z,79.53
2019-05-05T00:38:14.386Z,79.29
2019-05-05T00:39:14.991Z,79.18
2019-05-05T00:40:14.282Z,79.35
2019-05-05T00:41:14.938Z,79.24
2019-05-05T00:42:15.386Z,79.29
2019-05-05T00:43:14.858Z,79.27
2019-05-05T00:44:15.345Z,79.12
2019-05-05T00:45:14.826Z,79.22
2019-05-05T00:46:15.962Z,78.93
2019-05-05T00:47:14.624Z,79.13
2019-05-05T00:48:15.348Z,79.21
2019-05-05T00:49:14.610Z,79.30
2019-05-05T00:50:14.624Z,79.05
2019-05-05T00:51:15.110Z,78.86
2019-05-05T00:52:14.366Z,78.88
2019-05-05T00:53:14.704Z,78.54
2019-05-05T00:54:14.889Z,78.87
2019-05-05T00:55:15.176Z,79.06
2019-05-05T00:56:14.472Z,78.84
2019-05-05T00:57:14.962Z,79.01
2019-05-05T00:58:14.418Z,79.09
2019-05-05T00:59:14.727Z,78.71
2019-05-05T01:00:15.179Z,78.34
2019-05-05T01:01:14.494Z,78.19
2019-05-05T01:02:15.060Z,78.60
2019-05-05T01:03:15.275Z,78.95
2019-05-05T01:04:14.562Z,79.02
2019-05-05T01:05:14.895Z,79.21
2019-05-05T01:06:15.161Z,78.73
2019-05-05T01:07:14.422Z,78.82
2019-05-05T01:08:14.462Z,78.59
2019-05-05T01:09:14.898Z,78.98
2019-05-05T01:10:14.451Z,78.98
2019-05-05T01:11:14.582Z,79.27
2019-05-05T01:12:15.068Z,79.43
2019-05-05T01:13:15.216Z,79.59
2019-05-05T01:14:14.532Z,79.86
2019-05-05T01:15:15.042Z,79.98
2019-05-05T01:16:15.233Z,79.44
2019-05-05T01:17:14.803Z,78.98
2019-05-05T01:18:15.245Z,78.59
2019-05-05T01:19:15.051Z,78.84
2019-05-05T01:20:14.688Z,79.22
2019-05-05T01:21:15.106Z,79.04
2019-05-05T01:22:14.594Z,78.87
2019-05-05T01:23:15.105Z,78.54
2019-05-05T01:24:14.598Z,78.10
2019-05-05T01:25:14.938Z,78.03
2019-05-05T01:26:14.651Z,78.42
2019-05-05T01:27:14.792Z,78.66
2019-05-05T01:28:14.656Z,78.55
2019-05-05T01:29:14.752Z,78.53
2019-05-05T01:30:15.149Z,78.45
2019-05-05T01:31:14.741Z,78.80
2019-05-05T01:32:15.238Z,78.69
2019-05-05T01:33:14.684Z,78.89
2019-05-05T01:34:15.200Z,78.92
2019-05-05T01:35:14.704Z,79.00
2019-05-05T01:36:14.961Z,78.97
2019-05-05T01:37:15.211Z,78.97
2019-05-05T01:38:14.783Z,79.08
2019-05-05T01:39:14.778Z,79.03
2019-05-05T01:40:14.772Z,79.06
2019-05-05T01:41:14.852Z,79.07
2019-05-05T01:42:14.805Z,79.40
2019-05-05T01:43:14.839Z,79.21
2019-05-05T01:44:15.290Z,79.18
2019-05-05T01:45:15.027Z,79.06
2019-05-05T01:46:14.850Z,78.89
2019-05-05T01:47:14.961Z,79.06
2019-05-05T01:48:14.893Z,78.97
2019-05-05T01:49:14.928Z,79.17
2019-05-05T01:50:20.730Z,79.37
2019-05-05T01:51:14.874Z,79.37
2019-05-05T01:52:15.144Z,79.28
2019-05-05T01:53:15.308Z,79.01
2019-05-05T01:54:14.910Z,78.75
2019-05-05T01:55:14.939Z,78.94
2019-05-05T01:56:15.450Z,78.91
2019-05-05T01:57:15.057Z,78.74
2019-05-05T01:58:15.339Z,79.09
2019-05-05T01:59:14.921Z,78.89
2019-05-05T02:00:14.964Z,78.33
2019-05-05T02:01:15.337Z,78.23
2019-05-05T02:02:14.940Z,78.47
2019-05-05T02:03:14.913Z,78.78
2019-05-05T02:04:14.909Z,79.06
2019-05-05T02:05:14.957Z,78.55
2019-05-05T02:06:14.938Z,78.52
2019-05-05T02:07:14.942Z,78.57
2019-05-05T02:08:15.393Z,78.51
2019-05-05T02:09:15.885Z,77.70
2019-05-05T02:10:15.350Z,77.83
2019-05-05T02:11:15.637Z,77.25
2019-05-05T02:12:15.899Z,76.93
2019-05-05T02:13:16.056Z,76.17
2019-05-05T02:14:15.586Z,76.52
2019-05-05T02:15:15.099Z,76.36
2019-05-05T02:16:15.121Z,76.80
2019-05-05T02:17:14.949Z,77.09
2019-05-05T02:18:15.029Z,76.89
2019-05-05T02:19:14.982Z,76.99
2019-05-05T02:20:27.992Z,77.48
2019-05-05T02:21:14.889Z,77.54
2019-05-05T02:22:14.929Z,76.64
2019-05-05T02:23:15.177Z,76.77
2019-05-05T02:24:14.902Z,76.11
2019-05-05T02:25:14.955Z,76.33
2019-05-05T02:26:15.417Z,76.98
2019-05-05T02:27:14.888Z,77.04
2019-05-05T02:28:15.099Z,76.93
2019-05-05T02:29:14.963Z,77.49
2019-05-05T02:30:16.252Z,77.82
2019-05-05T02:31:16.640Z,77.51
2019-05-05T02:32:15.733Z,77.61
2019-05-05T02:33:15.818Z,76.82
2019-05-05T02:34:16.493Z,76.29
2019-05-05T02:35:16.226Z,76.69
2019-05-05T02:36:15.924Z,76.85
2019-05-05T02:37:16.078Z,76.72
2019-05-05T02:38:15.668Z,76.37
2019-05-05T02:39:16.000Z,75.95
2019-05-05T02:40:15.870Z,76.71
2019-05-05T02:41:15.552Z,77.63
2019-05-05T02:42:14.946Z,77.14
2019-05-05T02:43:15.283Z,76.78
2019-05-05T02:44:15.624Z,76.21
2019-05-05T02:45:15.634Z,75.55
2019-05-05T02:46:14.939Z,75.79
2019-05-05T02:47:15.653Z,76.19
2019-05-05T02:48:15.584Z,76.73
2019-05-05T02:49:15.237Z,76.36
2019-05-05T02:50:15.649Z,76.47
2019-05-05T02:51:15.383Z,75.94
2019-05-05T02:52:15.289Z,75.97
2019-05-05T02:53:14.967Z,75.87
2019-05-05T02:54:14.978Z,76.32
2019-05-05T02:55:14.985Z,76.08
2019-05-05T02:56:15.036Z,75.48
2019-05-05T02:57:15.017Z,75.75
2019-05-05T02:58:15.096Z,76.05
2019-05-05T02:59:15.089Z,75.93
2019-05-05T03:00:15.076Z,74.75
2019-05-05T03:01:15.038Z,74.59
2019-05-05T03:02:15.072Z,74.98
2019-05-05T03:03:15.079Z,75.49
2019-05-05T03:04:15.101Z,76.28
2019-05-05T03:05:15.157Z,75.74
2019-05-05T03:06:15.138Z,75.69
2019-05-05T03:07:15.171Z,76.33
2019-05-05T03:08:15.176Z,75.97
2019-05-05T03:09:15.136Z,75.56
2019-05-05T03:10:15.160Z,76.22
2019-05-05T03:11:15.190Z,76.72
2019-05-05T03:12:15.192Z,76.25
2019-05-05T03:13:15.216Z,76.06
2019-05-05T03:14:15.235Z,75.81
2019-05-05T03:15:15.219Z,76.56
2019-05-05T03:16:15.219Z,75.43
2019-05-05T03:17:15.304Z,74.42
2019-05-05T03:18:15.303Z,74.09
2019-05-05T03:19:15.261Z,73.47
2019-05-05T03:20:15.279Z,73.36
2019-05-05T03:21:15.298Z,73.08
2019-05-05T03:22:15.283Z,72.96
2019-05-05T03:23:15.325Z,72.59
2019-05-05T03:24:15.362Z,72.99
2019-05-05T03:25:15.353Z,72.56
2019-05-05T03:26:15.384Z,72.34
2019-05-05T03:27:15.357Z,72.26
2019-05-05T03:28:15.398Z,72.00
2019-05-05T03:29:15.383Z,72.30
2019-05-05T03:30:15.617Z,72.94
2019-05-05T03:31:16.185Z,72.65
2019-05-05T03:32:16.317Z,71.38
2019-05-05T03:33:16.167Z,71.32
2019-05-05T03:34:16.638Z,72.16
2019-05-05T03:35:15.481Z,72.94
2019-05-05T03:36:15.479Z,73.32
2019-05-05T03:37:15.488Z,73.74
2019-05-05T03:38:15.495Z,73.64
2019-05-05T03:39:15.485Z,72.92
2019-05-05T03:40:15.517Z,73.63
2019-05-05T03:41:15.544Z,72.66
2019-05-05T03:42:15.529Z,72.82
2019-05-05T03:43:15.566Z,72.94
2019-05-05T03:44:15.529Z,72.65
2019-05-05T03:45:15.576Z,72.98
2019-05-05T03:46:15.568Z,73.04
2019-05-05T03:47:15.585Z,72.85
2019-05-05T03:48:15.667Z,73.23
2019-05-05T03:49:15.606Z,73.52
2019-05-05T03:50:15.677Z,73.92
2019-05-05T03:51:18.793Z,73.03
2019-05-05T03:52:15.616Z,73.48
2019-05-05T03:53:15.638Z,73.80
2019-05-05T03:54:15.679Z,73.84
2019-05-05T03:55:15.656Z,72.72
2019-05-05T03:56:15.622Z,73.31
2019-05-05T03:57:15.623Z,73.43
2019-05-05T03:58:15.661Z,73.92
2019-05-05T03:59:15.637Z,74.15
2019-05-05T04:00:15.650Z,74.41
2019-05-05T04:01:15.708Z,73.94
2019-05-05T04:02:15.625Z,73.36
2019-05-05T04:03:15.649Z,73.21
2019-05-05T04:04:15.690Z,71.62
2019-05-05T04:05:15.721Z,71.30
2019-05-05T04:06:15.684Z,72.08
2019-05-05T04:07:15.670Z,72.01
2019-05-05T04:08:15.644Z,72.91
2019-05-05T04:09:15.635Z,72.63
2019-05-05T04:10:15.623Z,71.28
2019-05-05T04:11:15.695Z,72.71
2019-05-05T04:12:15.675Z,73.48
2019-05-05T04:13:15.675Z,73.00
2019-05-05T04:14:18.270Z,73.27
2019-05-05T04:15:15.651Z,72.45
2019-05-05T04:16:15.657Z,71.40
2019-05-05T04:17:15.706Z,71.60
2019-05-05T04:18:15.667Z,71.77
2019-05-05T04:19:15.668Z,71.34
2019-05-05T04:20:15.661Z,71.02
2019-05-05T04:21:15.633Z,70.29
2019-05-05T04:22:15.630Z,69.92
2019-05-05T04:23:15.725Z,71.34
2019-05-05T04:24:15.645Z,72.52
2019-05-05T04:25:15.644Z,72.34
2019-05-05T04:26:15.688Z,72.72
2019-05-05T04:27:15.658Z,72.15
2019-05-05T04:28:15.661Z,71.32
2019-05-05T04:29:15.725Z,71.69
2019-05-05T04:30:15.690Z,71.90
2019-05-05T04:31:15.667Z,72.71
2019-05-05T04:32:15.741Z,72.46
2019-05-05T04:33:15.708Z,72.38
2019-05-05T04:34:15.646Z,72.81
2019-05-05T04:35:15.670Z,70.95
2019-05-05T04:36:15.654Z,71.34
2019-05-05T04:37:15.675Z,70.90
2019-05-05T04:38:15.675Z,70.68
2019-05-05T04:39:15.695Z,71.18
2019-05-05T04:40:15.693Z,70.25
2019-05-05T04:41:15.695Z,70.51
2019-05-05T04:42:15.687Z,71.81
2019-05-05T04:43:15.661Z,71.34
2019-05-05T04:44:17.899Z,70.03
2019-05-05T04:45:15.668Z,71.16
2019-05-05T04:46:15.713Z,70.81
2019-05-05T04:47:15.686Z,70.59
2019-05-05T04:48:15.676Z,70.12
2019-05-05T04:49:15.673Z,70.12
2019-05-05T04:50:18.310Z,70.99
2019-05-05T04:51:15.660Z,71.56
2019-05-05T04:52:15.661Z,70.75
2019-05-05T04:53:15.674Z,70.93
2019-05-05T04:54:15.694Z,71.15
2019-05-05T04:55:15.706Z,69.83
2019-05-05T04:56:15.673Z,69.26
2019-05-05T04:57:15.666Z,70.07
2019-05-05T04:58:15.703Z,69.92
2019-05-05T04:59:15.679Z,70.66
2019-05-05T05:00:15.685Z,71.06
2019-05-05T05:01:15.672Z,70.37
2019-05-05T05:02:15.732Z,70.13
2019-05-05T05:03:15.682Z,69.79
2019-05-05T05:04:15.741Z,68.68
2019-05-05T05:05:15.728Z,67.95
2019-05-05T05:06:15.724Z,69.93
2019-05-05T05:07:15.694Z,69.09
2019-05-05T05:08:15.730Z,69.68
2019-05-05T05:09:15.709Z,68.40
2019-05-05T05:10:15.696Z,68.78
2019-05-05T05:11:15.699Z,69.38
2019-05-05T05:12:15.690Z,69.79
2019-05-05T05:13:15.705Z,69.49
2019-05-05T05:14:15.742Z,70.24
2019-05-05T05:15:15.693Z,68.92
2019-05-05T05:16:15.710Z,68.46
2019-05-05T05:17:15.757Z,67.64
2019-05-05T05:18:15.728Z,68.32
2019-05-05T05:19:15.683Z,69.37
2019-05-05T05:20:15.701Z,69.37
2019-05-05T05:21:15.700Z,69.69
2019-05-05T05:22:15.713Z,69.26
2019-05-05T05:23:15.715Z,68.92
2019-05-05T05:24:15.729Z,68.78
2019-05-05T05:25:15.698Z,69.73
2019-05-05T05:26:15.729Z,68.89
2019-05-05T05:27:15.710Z,68.08
2019-05-05T05:28:15.695Z,66.96
2019-05-05T05:29:15.740Z,67.81
2019-05-05T05:30:15.750Z,69.21
2019-05-05T05:31:15.702Z,69.68
2019-05-05T05:32:15.749Z,69.92
2019-05-05T05:33:15.728Z,70.01
2019-05-05T05:34:15.701Z,69.79
2019-05-05T05:35:15.770Z,68.76
2019-05-05T05:36:15.735Z,69.15
2019-05-05T05:37:15.720Z,68.19
2019-05-05T05:38:15.734Z,69.12
2019-05-05T05:39:15.702Z,68.03
2019-05-05T05:40:15.708Z,68.24
2019-05-05T05:41:15.775Z,67.39
2019-05-05T05:42:15.752Z,67.74
2019-05-05T05:43:15.731Z,67.77
2019-05-05T05:44:15.699Z,67.64
2019-05-05T05:45:15.723Z,67.31
2019-05-05T05:46:15.720Z,68.91
2019-05-05T05:47:15.775Z,69.85
2019-05-05T05:48:15.710Z,68.90
2019-05-05T05:49:15.733Z,68.46
2019-05-05T05:50:15.739Z,66.92
2019-05-05T05:51:15.719Z,66.72
2019-05-05T05:52:18.750Z,66.83
2019-05-05T05:53:15.768Z,66.01
2019-05-05T05:54:15.738Z,66.59
2019-05-05T05:55:15.731Z,67.47
2019-05-05T05:56:15.760Z,67.33
2019-05-05T05:57:15.702Z,68.86
2019-05-05T05:58:15.726Z,69.73
2019-05-05T05:59:15.748Z,69.47
2019-05-05T06:00:15.755Z,67.39
2019-05-05T06:01:15.736Z,67.68
2019-05-05T06:02:15.776Z,66.66
2019-05-05T06:03:15.727Z,68.11
2019-05-05T06:04:15.740Z,68.74
2019-05-05T06:05:15.737Z,67.92
2019-05-05T06:06:15.797Z,67.38
2019-05-05T06:07:15.739Z,67.55
2019-05-05T06:08:15.751Z,66.41
2019-05-05T06:09:15.686Z,66.33
2019-05-05T06:10:23.968Z,66.16
2019-05-05T06:11:15.760Z,66.17
2019-05-05T06:12:15.766Z,66.78
2019-05-05T06:13:15.924Z,66.19
2019-05-05T06:14:15.790Z,66.79
2019-05-05T06:15:15.742Z,66.26
2019-05-05T06:16:15.738Z,68.00
2019-05-05T06:17:15.787Z,68.70
2019-05-05T06:18:15.769Z,67.00
2019-05-05T06:19:15.739Z,66.33
2019-05-05T06:20:15.774Z,66.27
2019-05-05T06:21:15.736Z,66.45
2019-05-05T06:22:28.146Z,66.83
2019-05-05T06:23:15.810Z,67.11
2019-05-05T06:24:15.774Z,67.52
2019-05-05T06:25:16.208Z,67.41
2019-05-05T06:26:15.729Z,67.84
2019-05-05T06:27:15.735Z,68.21
2019-05-05T06:28:15.751Z,67.05
2019-05-05T06:29:15.778Z,66.52
2019-05-05T06:30:15.750Z,67.23
2019-05-05T06:31:15.748Z,67.52
2019-05-05T06:32:15.791Z,67.61
2019-05-05T06:33:15.758Z,68.81
2019-05-05T06:34:15.746Z,69.87
2019-05-05T06:35:15.804Z,69.82
2019-05-05T06:36:15.780Z,69.06
2019-05-05T06:37:15.764Z,67.95
2019-05-05T06:38:15.802Z,68.62
2019-05-05T06:39:15.744Z,68.39
2019-05-05T06:40:15.751Z,68.61
2019-05-05T06:41:15.792Z,68.33
2019-05-05T06:42:15.822Z,68.33
2019-05-05T06:43:15.758Z,67.50
2019-05-05T06:44:15.728Z,68.42
2019-05-05T06:45:15.761Z,68.85
2019-05-05T06:46:15.766Z,68.77
2019-05-05T06:47:15.803Z,68.92
2019-05-05T06:48:15.766Z,69.05
2019-05-05T06:49:15.761Z,69.39
2019-05-05T06:50:15.794Z,68.40
2019-05-05T06:51:15.759Z,67.99
2019-05-05T06:52:15.751Z,67.95
2019-05-05T06:53:15.790Z,68.12
2019-05-05T06:54:15.787Z,68.99
2019-05-05T06:55:15.761Z,68.75
2019-05-05T06:56:15.836Z,69.56
2019-05-05T06:57:15.756Z,68.72
2019-05-05T06:58:15.776Z,68.63
2019-05-05T06:59:15.828Z,69.21
2019-05-05T07:00:15.769Z,69.58
2019-05-05T07:01:15.778Z,70.42
2019-05-05T07:02:15.806Z,69.63
2019-05-05T07:03:15.728Z,70.31
2019-05-05T07:04:15.785Z,68.95
2019-05-05T07:05:15.807Z,67.84
2019-05-05T07:06:15.751Z,68.09
2019-05-05T07:07:15.814Z,69.10
2019-05-05T07:08:15.795Z,67.66
2019-05-05T07:09:15.780Z,68.67
2019-05-05T07:10:15.787Z,68.29
2019-05-05T07:11:15.784Z,69.36
2019-05-05T07:12:15.787Z,68.82
2019-05-05T07:13:15.779Z,68.26
2019-05-05T07:14:15.829Z,69.22
2019-05-05T07:15:15.762Z,68.68
2019-05-05T07:16:15.779Z,68.56
2019-05-05T07:17:15.833Z,68.04
2019-05-05T07:18:15.779Z,67.80
2019-05-05T07:19:15.761Z,67.74
2019-05-05T07:20:15.788Z,66.89
2019-05-05T07:21:15.809Z,66.88
2019-05-05T07:22:17.672Z,68.26
2019-05-05T07:23:15.845Z,67.94
2019-05-05T07:24:15.798Z,67.23
2019-05-05T07:25:15.807Z,66.09
2019-05-05T07:26:15.802Z,67.68
2019-05-05T07:27:15.783Z,68.04
2019-05-05T07:28:15.827Z,68.54
2019-05-05T07:29:18.059Z,68.43
2019-05-05T07:30:15.816Z,67.26
2019-05-05T07:31:15.848Z,67.22
2019-05-05T07:32:15.825Z,68.58
2019-05-05T07:33:15.777Z,68.69
2019-05-05T07:34:15.805Z,68.40
2019-05-05T07:35:15.846Z,67.12
2019-05-05T07:36:15.828Z,67.44
2019-05-05T07:37:15.851Z,68.72
2019-05-05T07:38:15.817Z,68.20
2019-05-05T07:39:15.796Z,68.57
2019-05-05T07:40:15.823Z,68.48
2019-05-05T07:41:15.850Z,67.25
2019-05-05T07:42:15.807Z,68.23
2019-05-05T07:43:15.807Z,67.54
2019-05-05T07:44:25.908Z,68.13
2019-05-05T07:45:22.595Z,67.94
2019-05-05T07:46:15.875Z,66.52
2019-05-05T07:47:15.858Z,66.69
2019-05-05T07:48:15.808Z,68.56
2019-05-05T07:49:15.813Z,67.87
2019-05-05T07:50:28.538Z,67.57
2019-05-05T07:51:15.826Z,69.40
2019-05-05T07:52:15.845Z,68.79
2019-05-05T07:53:17.958Z,67.28
2019-05-05T07:54:15.824Z,66.95
2019-05-05T07:55:15.817Z,67.39
2019-05-05T07:56:15.802Z,67.03
2019-05-05T07:57:15.811Z,66.24
2019-05-05T07:58:15.842Z,67.38
2019-05-05T07:59:15.857Z,67.59
2019-05-05T08:00:15.829Z,68.15
2019-05-05T08:01:15.834Z,67.32
2019-05-05T08:02:15.840Z,66.86
2019-05-05T08:03:15.803Z,66.92
2019-05-05T08:04:15.827Z,68.70
2019-05-05T08:05:15.819Z,67.12
2019-05-05T08:06:15.820Z,67.24
2019-05-05T08:07:15.832Z,68.21
2019-05-05T08:08:15.867Z,67.81
2019-05-05T08:09:15.827Z,67.00
2019-05-05T08:10:15.820Z,67.32
2019-05-05T08:11:15.982Z,67.65
2019-05-05T08:12:15.815Z,68.20
2019-05-05T08:13:15.822Z,68.87
2019-05-05T08:14:15.831Z,67.30
2019-05-05T08:15:15.846Z,66.41
2019-05-05T08:16:15.831Z,67.52
2019-05-05T08:17:15.880Z,68.04
2019-05-05T08:18:15.851Z,68.45
2019-05-05T08:19:15.890Z,68.54
2019-05-05T08:20:19.160Z,68.10
2019-05-05T08:21:15.876Z,67.41
2019-05-05T08:22:15.842Z,68.43
2019-05-05T08:23:29.075Z,68.93
2019-05-05T08:24:15.834Z,66.82
2019-05-05T08:25:15.816Z,67.99
2019-05-05T08:26:15.884Z,68.18
2019-05-05T08:27:15.836Z,67.83
2019-05-05T08:28:15.851Z,67.75
2019-05-05T08:29:15.877Z,67.72
2019-05-05T08:30:15.852Z,67.14
2019-05-05T08:31:15.861Z,67.22
2019-05-05T08:32:15.870Z,66.71
2019-05-05T08:33:15.816Z,67.04
2019-05-05T08:34:15.858Z,68.30
2019-05-05T08:35:15.871Z,68.95
2019-05-05T08:36:15.845Z,70.17
2019-05-05T08:37:15.838Z,69.80
2019-05-05T08:38:15.873Z,69.24
2019-05-05T08:39:15.823Z,68.90
2019-05-05T08:40:15.864Z,68.10
2019-05-05T08:41:15.900Z,68.68
2019-05-05T08:42:15.853Z,66.99
2019-05-05T08:43:15.835Z,67.24
2019-05-05T08:44:18.039Z,67.23
2019-05-05T08:45:15.816Z,67.53
2019-05-05T08:46:15.871Z,68.99
2019-05-05T08:47:15.886Z,69.99
2019-05-05T08:48:15.861Z,67.74
2019-05-05T08:49:15.850Z,68.98
2019-05-05T08:50:15.835Z,69.17
2019-05-05T08:51:15.842Z,68.88
2019-05-05T08:52:15.866Z,69.21
2019-05-05T08:53:15.889Z,70.04
2019-05-05T08:54:15.859Z,69.87
2019-05-05T08:55:15.878Z,68.05
2019-05-05T08:56:15.890Z,67.99
2019-05-05T08:57:15.837Z,68.05
2019-05-05T08:58:15.840Z,69.39
2019-05-05T08:59:15.885Z,69.37
2019-05-05T09:00:15.868Z,68.42
2019-05-05T09:01:15.891Z,69.18
2019-05-05T09:02:15.868Z,67.69
2019-05-05T09:03:15.831Z,68.34
2019-05-05T09:04:15.854Z,69.19
2019-05-05T09:05:15.897Z,68.83
2019-05-05T09:06:15.867Z,69.22
2019-05-05T09:07:15.883Z,68.78
2019-05-05T09:08:15.869Z,68.63
2019-05-05T09:09:15.839Z,68.97
2019-05-05T09:10:15.911Z,70.50
2019-05-05T09:11:15.883Z,71.11
2019-05-05T09:12:15.879Z,68.99
2019-05-05T09:13:15.870Z,70.25
2019-05-05T09:14:15.885Z,70.38
2019-05-05T09:15:15.841Z,70.37
2019-05-05T09:16:15.877Z,68.78
2019-05-05T09:17:15.881Z,70.58
2019-05-05T09:18:15.864Z,69.50
2019-05-05T09:19:15.870Z,69.37
2019-05-05T09:20:15.878Z,69.68
2019-05-05T09:21:15.858Z,68.87
2019-05-05T09:22:15.887Z,69.81
2019-05-05T09:23:15.859Z,69.94
2019-05-05T09:24:15.886Z,68.94
2019-05-05T09:25:15.873Z,70.33
2019-05-05T09:26:15.870Z,69.94
2019-05-05T09:27:15.847Z,69.10
2019-05-05T09:28:15.933Z,69.18
2019-05-05T09:29:15.892Z,69.58
2019-05-05T09:30:15.919Z,69.15
2019-05-05T09:31:15.904Z,70.29
2019-05-05T09:32:15.937Z,70.63
2019-05-05T09:33:18.316Z,71.44
2019-05-05T09:34:15.944Z,70.28
2019-05-05T09:35:15.965Z,70.93
2019-05-05T09:36:15.969Z,69.65
2019-05-05T09:37:15.971Z,69.72
2019-05-05T09:38:16.001Z,70.77
2019-05-05T09:39:15.993Z,70.10
2019-05-05T09:40:16.046Z,69.43
2019-05-05T09:41:16.024Z,69.36
2019-05-05T09:42:16.015Z,69.40
2019-05-05T09:43:16.081Z,69.34
2019-05-05T09:44:16.093Z,70.10
2019-05-05T09:45:16.030Z,69.68
2019-05-05T09:46:16.093Z,69.76
2019-05-05T09:47:16.127Z,69.92
2019-05-05T09:48:16.089Z,70.58
2019-05-05T09:49:16.099Z,70.01
2019-05-05T09:50:16.137Z,70.51
2019-05-05T09:51:16.134Z,70.98
2019-05-05T09:52:16.157Z,69.62
2019-05-05T09:53:16.200Z,70.43
2019-05-05T09:54:17.441Z,69.15
2019-05-05T09:55:16.228Z,70.09
2019-05-05T09:56:16.172Z,70.82
2019-05-05T09:57:16.188Z,71.34
2019-05-05T09:58:16.277Z,71.55
2019-05-05T09:59:16.283Z,69.13
2019-05-05T10:00:16.258Z,68.92
2019-05-05T10:01:16.257Z,68.89
2019-05-05T10:02:16.307Z,69.15
2019-05-05T10:03:16.281Z,69.33
2019-05-05T10:04:16.318Z,69.77
2019-05-05T10:05:16.348Z,70.84
2019-05-05T10:06:16.318Z,69.50
2019-05-05T10:07:16.345Z,70.24
2019-05-05T10:08:16.396Z,70.14
2019-05-05T10:09:16.345Z,70.40
2019-05-05T10:10:16.374Z,68.77
2019-05-05T10:11:16.732Z,68.74
2019-05-05T10:12:16.389Z,68.80
2019-05-05T10:13:16.384Z,69.09
2019-05-05T10:14:16.407Z,68.85
2019-05-05T10:15:16.405Z,68.56
2019-05-05T10:16:16.425Z,70.28
2019-05-05T10:17:16.478Z,70.13
2019-05-05T10:18:16.448Z,69.61
2019-05-05T10:19:16.502Z,69.01
2019-05-05T10:20:16.513Z,68.26
2019-05-05T10:21:17.836Z,69.02
2019-05-05T10:22:16.555Z,68.26
2019-05-05T10:23:16.524Z,69.24
2019-05-05T10:24:27.647Z,68.34
2019-05-05T10:25:16.578Z,68.52
2019-05-05T10:26:16.562Z,69.60
2019-05-05T10:27:16.538Z,68.84
2019-05-05T10:28:16.581Z,67.64
2019-05-05T10:29:16.574Z,68.54
2019-05-05T10:30:16.529Z,68.32
2019-05-05T10:31:16.546Z,67.31
2019-05-05T10:32:16.510Z,67.22
2019-05-05T10:33:16.523Z,67.83
2019-05-05T10:34:16.549Z,68.59
2019-05-05T10:35:16.583Z,68.30
2019-05-05T10:36:16.506Z,70.54
2019-05-05T10:37:16.583Z,68.29
2019-05-05T10:38:16.568Z,66.62
2019-05-05T10:39:16.529Z,67.07
2019-05-05T10:40:16.568Z,68.68
2019-05-05T10:41:16.563Z,67.87
2019-05-05T10:42:16.555Z,66.90
2019-05-05T10:43:16.557Z,68.21
2019-05-05T10:44:16.606Z,69.24
2019-05-05T10:45:16.544Z,69.17
2019-05-05T10:46:16.573Z,67.52
2019-05-05T10:47:16.597Z,65.96
2019-05-05T10:48:16.564Z,66.84
2019-05-05T10:49:16.557Z,67.47
2019-05-05T10:50:16.547Z,66.09
2019-05-05T10:51:16.512Z,65.99
2019-05-05T10:52:16.565Z,67.46
2019-05-05T10:53:16.562Z,68.72
2019-05-05T10:54:16.508Z,67.67
2019-05-05T10:55:16.552Z,68.21
2019-05-05T10:56:16.569Z,67.50
2019-05-05T10:57:18.405Z,68.75
2019-05-05T10:58:16.586Z,67.44
2019-05-05T10:59:16.600Z,67.06
2019-05-05T11:00:16.566Z,67.15
2019-05-05T11:01:16.550Z,64.86
2019-05-05T11:02:16.576Z,65.87
2019-05-05T11:03:16.559Z,64.81
2019-05-05T11:04:16.580Z,67.34
2019-05-05T11:05:16.559Z,68.05
2019-05-05T11:06:16.556Z,67.32
2019-05-05T11:07:16.573Z,67.02
2019-05-05T11:08:16.591Z,65.52
2019-05-05T11:09:16.594Z,65.43
2019-05-05T11:10:16.581Z,66.63
2019-05-05T11:11:16.585Z,67.24
2019-05-05T11:12:16.545Z,66.85
2019-05-05T11:13:16.569Z,67.17
2019-05-05T11:14:16.615Z,67.26
2019-05-05T11:15:16.558Z,65.87
2019-05-05T11:16:16.559Z,68.26
2019-05-05T11:17:16.590Z,66.09
2019-05-05T11:18:16.569Z,66.84
2019-05-05T11:19:16.562Z,66.27
2019-05-05T11:20:16.587Z,66.96
2019-05-05T11:21:16.585Z,66.48
2019-05-05T11:22:16.614Z,66.63
2019-05-05T11:23:16.612Z,68.47
2019-05-05T11:24:16.583Z,67.53
2019-05-05T11:25:16.580Z,67.25
2019-05-05T11:26:16.609Z,66.18
2019-05-05T11:27:16.590Z,66.20
2019-05-05T11:28:16.587Z,66.39
2019-05-05T11:29:16.589Z,67.15
2019-05-05T11:30:16.571Z,66.38
2019-05-05T11:31:16.582Z,67.58
2019-05-05T11:32:16.613Z,66.70
2019-05-05T11:33:16.583Z,67.26
2019-05-05T11:34:16.596Z,66.79
2019-05-05T11:35:16.638Z,67.34
2019-05-05T11:36:16.574Z,67.01
2019-05-05T11:37:16.576Z,67.93
2019-05-05T11:38:16.566Z,66.78
2019-05-05T11:39:16.583Z,66.06
2019-05-05T11:40:16.601Z,65.98
2019-05-05T11:41:16.597Z,65.80
2019-05-05T11:42:16.566Z,66.34
2019-05-05T11:43:16.591Z,66.12
2019-05-05T11:44:16.564Z,65.89
2019-05-05T11:45:16.563Z,67.53
2019-05-05T11:46:16.632Z,66.85
2019-05-05T11:47:16.585Z,67.59
2019-05-05T11:48:16.578Z,67.42
2019-05-05T11:49:16.591Z,66.64
2019-05-05T11:50:16.622Z,67.96
2019-05-05T11:51:16.608Z,67.98
2019-05-05T11:52:16.629Z,66.69
2019-05-05T11:53:16.635Z,67.60
2019-05-05T11:54:16.597Z,66.77
2019-05-05T11:55:16.596Z,67.10
2019-05-05T11:56:16.576Z,67.55
2019-05-05T11:57:16.592Z,66.39
2019-05-05T11:58:16.616Z,68.63
2019-05-05T11:59:16.616Z,67.93
2019-05-05T12:00:16.597Z,67.42
2019-05-05T12:01:16.594Z,67.36
2019-05-05T12:02:16.589Z,68.00
2019-05-05T12:03:16.578Z,67.15
2019-05-05T12:04:16.612Z,67.85
2019-05-05T12:05:16.596Z,66.70
2019-05-05T12:06:16.576Z,68.81
2019-05-05T12:07:16.645Z,68.36
2019-05-05T12:08:16.651Z,67.46
2019-05-05T12:09:16.604Z,66.94
2019-05-05T12:10:16.616Z,66.98
2019-05-05T12:11:16.597Z,66.94
2019-05-05T12:12:16.613Z,68.97
2019-05-05T12:13:16.633Z,67.40
2019-05-05T12:14:16.638Z,67.94
2019-05-05T12:15:16.627Z,67.45
2019-05-05T12:16:16.660Z,68.02
2019-05-05T12:17:16.668Z,68.04
2019-05-05T12:18:16.685Z,66.80
2019-05-05T12:19:16.693Z,67.05
2019-05-05T12:20:16.734Z,67.61
2019-05-05T12:21:16.699Z,67.21
2019-05-05T12:22:16.723Z,67.64
2019-05-05T12:23:16.737Z,68.66
2019-05-05T12:24:16.738Z,69.52
2019-05-05T12:25:27.753Z,67.38
2019-05-05T12:26:16.748Z,66.63
2019-05-05T12:27:16.789Z,67.08
2019-05-05T12:28:16.775Z,68.58
2019-05-05T12:29:16.809Z,67.83
2019-05-05T12:30:16.761Z,67.46
2019-05-05T12:31:16.766Z,68.45
2019-05-05T12:32:16.727Z,68.52
2019-05-05T12:33:16.757Z,66.71
2019-05-05T12:34:16.777Z,67.66
2019-05-05T12:35:16.809Z,67.11
2019-05-05T12:36:16.719Z,66.24
2019-05-05T12:37:16.758Z,66.84
2019-05-05T12:38:16.763Z,66.47
2019-05-05T12:39:16.762Z,66.33
2019-05-05T12:40:16.849Z,66.05
2019-05-05T12:41:16.826Z,65.84
2019-05-05T12:42:16.763Z,66.98
2019-05-05T12:43:16.770Z,66.60
2019-05-05T12:44:16.773Z,67.04
2019-05-05T12:45:16.783Z,68.29
2019-05-05T12:46:16.780Z,67.67
2019-05-05T12:47:16.801Z,67.06
2019-05-05T12:48:16.752Z,67.46
2019-05-05T12:49:16.778Z,67.80
2019-05-05T12:50:16.806Z,66.93
2019-05-05T12:51:16.743Z,66.96
2019-05-05T12:52:16.786Z,66.65